Time;durP1;ratioP1;P1;durP2;ratioP2;P2;SDS_P1;SDS_P2;PMS_P1;PMS_P2;Temp;Humidity;BMP_temperature;BMP_pressure;BME280_temperature;BME280_humidity;BME280_pressure;Samples;Min_cycle;Max_cycle;Signal;HPM_P1;HPM_P2
2022/11/03 00:02:18;;;;;;;11.43;3.97;;;;;;;2.56;65.88;99766.94;4842704;28;20046;-67
2022/11/03 00:08:08;;;;;;;10.02;4.10;;;;;;;2.73;66.17;99774.81;4864474;28;20593;-66
2022/11/03 00:10:49;;;;;;;11.95;5.35;;;;;;;2.90;65.41;99772.38;4850734;28;20084;-66
2022/11/03 00:13:31;;;;;;;7.30;4.18;;;;;;;2.92;64.97;99770.66;4843965;28;20051;-66
2022/11/03 00:19:05;;;;;;;10.63;5.13;;;;;;;2.87;63.13;99772.38;4880511;28;20049;-66
2022/11/03 00:21:37;;;;;;;16.65;5.40;;;;;;;2.83;63.69;99773.19;4898808;28;20054;-66
2022/11/03 00:24:23;;;;;;;10.60;4.70;;;;;;;2.79;62.90;99779.16;4918000;28;20434;-66
2022/11/03 00:27:11;;;;;;;8.55;4.13;;;;;;;2.68;60.94;99739.53;4881517;28;20086;-66
2022/11/03 00:29:53;;;;;;;10.82;4.47;;;;;;;2.91;60.70;99774.09;4904008;28;20037;-68
2022/11/03 00:35:20;;;;;;;8.30;4.07;;;;;;;2.69;55.49;99772.22;4872838;28;20064;-69
2022/11/03 00:37:58;;;;;;;13.18;4.80;;;;;;;2.58;56.03;99775.56;4830372;28;20063;-68
2022/11/03 00:40:42;;;;;;;9.55;4.30;;;;;;;2.91;57.69;99765.50;4898894;28;20388;-67
2022/11/03 00:43:22;;;;;;;9.07;4.13;;;;;;;3.12;56.19;99767.31;4894643;28;20053;-67
2022/11/03 00:45:55;;;;;;;9.77;3.70;;;;;;;3.12;55.20;99767.31;4888877;28;20251;-69
2022/11/03 00:48:34;;;;;;;12.98;5.05;;;;;;;3.05;55.60;99770.75;4867925;28;20042;-67
2022/11/03 00:51:23;;;;;;;9.95;3.85;;;;;;;2.72;54.15;99746.44;4915466;28;20073;-66
2022/11/03 00:54:10;;;;;;;9.88;3.90;;;;;;;2.72;54.84;99756.75;4898963;28;20048;-68
2022/11/03 00:57:10;;;;;;;7.32;3.72;;;;;;;2.87;51.53;99761.16;4871345;28;20053;-67
2022/11/03 01:02:56;;;;;;;9.93;3.88;;;;;;;2.61;51.81;99753.25;4916740;28;20049;-68
2022/11/03 01:09:07;;;;;;;8.48;3.53;;;;;;;2.87;51.42;99731.06;4895435;28;20046;-66
2022/11/03 01:12:04;;;;;;;8.20;4.38;;;;;;;3.36;53.56;99731.31;4927849;28;20047;-65
2022/11/03 01:14:46;;;;;;;9.38;4.53;;;;;;;3.66;53.39;99721.94;4851926;28;20375;-66
2022/11/03 01:17:45;;;;;;;8.07;4.65;;;;;;;3.95;53.18;99716.00;4929703;28;20052;-66
2022/11/03 01:20:38;;;;;;;8.45;3.97;;;;;;;3.94;52.48;99724.59;4891134;28;20045;-66
2022/11/03 01:23:41;;;;;;;10.80;3.92;;;;;;;3.73;51.53;99715.94;4888873;28;20059;-66
2022/11/03 01:26:14;;;;;;;8.30;4.80;;;;;;;3.53;53.60;99713.31;4892245;28;20049;-66
2022/11/03 01:29:09;;;;;;;8.90;4.40;;;;;;;3.35;53.21;99724.44;4895532;28;20251;-65
2022/11/03 01:34:47;;;;;;;12.45;4.28;;;;;;;2.79;54.06;99719.81;4892955;28;20053;-66
2022/11/03 01:40:19;;;;;;;11.77;4.22;;;;;;;1.05;56.46;99527.75;4911491;28;20156;-66
2022/11/03 01:43:46;;;;;;;7.95;4.15;;;;;;;2.39;58.00;99706.63;4904470;28;20061;-64
2022/11/03 01:46:51;;;;;;;10.45;4.35;;;;;;;2.70;59.37;99696.56;4892413;28;20336;-66
2022/11/03 01:52:58;;;;;;;8.35;4.38;;;;;;;2.55;57.90;99687.88;4905126;28;20049;-65
2022/11/03 01:55:44;;;;;;;13.38;5.03;;;;;;;2.63;57.90;99684.47;4901598;28;20099;-65
2022/11/03 01:58:36;;;;;;;9.10;4.20;;;;;;;2.71;58.56;99682.78;4886362;28;20045;-65
2022/11/03 02:01:38;;;;;;;12.88;3.97;;;;;;;2.68;57.39;99667.31;4887552;28;20053;-65
2022/11/03 02:04:43;;;;;;;12.48;4.78;;;;;;;2.79;57.08;99669.06;4886802;28;20060;-64
2022/11/03 02:07:31;;;;;;;7.88;4.60;;;;;;;3.03;56.24;99658.03;4872991;28;20062;-63
2022/11/03 02:10:18;;;;;;;8.60;4.63;;;;;;;3.08;54.48;99647.72;4892964;28;20045;-63
2022/11/03 02:16:26;;;;;;;12.27;5.75;;;;;;;3.45;55.51;99643.53;4903418;28;20116;-64
2022/11/03 02:19:10;;;;;;;8.60;4.72;;;;;;;3.42;53.57;99642.66;4861910;28;20050;-64
2022/11/03 02:22:08;;;;;;;7.70;4.10;;;;;;;3.29;53.90;99641.75;4812784;28;20066;-63
2022/11/03 02:24:51;;;;;;;6.05;4.05;;;;;;;3.21;52.36;99653.78;4897729;28;20113;-63
2022/11/03 02:27:46;;;;;;;8.82;4.57;;;;;;;3.12;53.85;99648.59;4878265;28;20118;-64
2022/11/03 02:30:48;;;;;;;10.30;3.85;;;;;;;3.28;54.73;99645.22;4884037;28;20061;-64
2022/11/03 02:33:50;;;;;;;10.13;5.78;;;;;;;3.29;54.87;99630.56;4865955;28;20069;-63
2022/11/03 02:36:29;;;;;;;11.43;4.50;;;;;;;3.33;53.39;99643.50;4834183;28;20051;-64
2022/11/03 02:39:24;;;;;;;7.43;4.05;;;;;;;3.25;53.18;99645.22;4909444;28;20141;-63
2022/11/03 02:42:12;;;;;;;8.38;3.80;;;;;;;3.16;53.78;99640.00;4917662;28;20068;-64
2022/11/03 02:45:06;;;;;;;9.30;4.38;;;;;;;3.09;53.71;99638.25;4932604;28;20365;-64
2022/11/03 02:48:09;;;;;;;7.72;4.43;;;;;;;3.05;53.23;99631.38;4892728;28;20357;-65
2022/11/03 02:53:54;;;;;;;8.98;4.70;;;;;;;2.85;53.24;99639.88;4878946;28;20108;-64
2022/11/03 02:57:02;;;;;;;7.07;4.15;;;;;;;2.52;52.18;99618.22;4898861;28;20124;-64
2022/11/03 03:00:31;;;;;;;7.72;4.40;;;;;;;2.53;53.91;99632.81;4842008;28;20061;-62
2022/11/03 03:03:16;;;;;;;8.55;4.30;;;;;;;2.72;55.32;99638.06;4902614;28;20052;-62
2022/11/03 03:06:11;;;;;;;8.10;4.07;;;;;;;2.72;53.88;99628.66;4886384;28;20090;-63
2022/11/03 03:09:04;;;;;;;8.05;3.80;;;;;;;2.65;53.82;99631.19;4914571;28;20048;-64
2022/11/03 03:14:57;;;;;;;10.68;5.18;;;;;;;2.63;54.23;99622.56;4877945;28;20080;-64
2022/11/03 03:17:45;;;;;;;9.68;4.28;;;;;;;2.71;55.65;99626.03;4902929;28;20042;-63
2022/11/03 03:20:27;;;;;;;8.95;4.28;;;;;;;2.74;55.66;99628.63;4883341;28;20045;-63
2022/11/03 03:23:22;;;;;;;11.88;4.30;;;;;;;2.65;55.70;99615.72;4895081;28;20057;-63
2022/11/03 03:26:09;;;;;;;8.35;3.83;;;;;;;2.63;54.60;99623.44;4859577;28;20493;-64
2022/11/03 03:29:09;;;;;;;10.93;4.15;;;;;;;2.35;54.91;99576.00;4849300;28;20132;-64
2022/11/03 03:31:50;;;;;;;7.78;3.97;;;;;;;2.61;55.37;99619.13;4916732;28;20065;-64
2022/11/03 03:34:49;;;;;;;14.10;4.70;;;;;;;2.63;55.96;99617.41;4916346;28;20051;-64
2022/11/03 03:40:29;;;;;;;10.02;4.80;;;;;;;2.64;56.36;99608.81;4865079;28;20246;-64
2022/11/03 03:43:28;;;;;;;12.15;4.70;;;;;;;2.78;57.89;99604.59;4874551;28;20150;-65
2022/11/03 03:46:14;;;;;;;10.43;4.75;;;;;;;2.76;55.94;99598.56;4893847;28;20033;-64
2022/11/03 03:48:48;;;;;;;7.90;3.65;;;;;;;2.68;55.70;99602.81;4898079;28;20327;-63
2022/11/03 03:51:47;;;;;;;13.10;5.20;;;;;;;2.66;56.08;99592.47;4863635;28;20053;-64
2022/11/03 03:54:26;;;;;;;6.50;4.13;;;;;;;2.44;55.33;99570.88;4881221;28;20057;-65
2022/11/03 03:57:14;;;;;;;7.47;4.78;;;;;;;2.63;55.48;99597.63;4899436;28;20451;-65
2022/11/03 04:00:07;;;;;;;13.10;5.28;;;;;;;2.60;55.64;99597.63;4861928;28;20053;-65
2022/11/03 04:02:54;;;;;;;10.60;4.55;;;;;;;2.61;55.71;99608.78;4889616;28;20049;-65
2022/11/03 04:05:33;;;;;;;9.27;4.65;;;;;;;2.68;56.75;99600.25;4857443;28;20049;-65
2022/11/03 04:08:22;;;;;;;8.63;4.45;;;;;;;2.65;56.18;99600.22;4841995;28;20069;-63
2022/11/03 04:23:00;;;;;;;9.27;4.53;;;;;;;2.97;57.29;99592.59;4837294;28;20669;-66
2022/11/03 04:25:53;;;;;;;10.23;4.68;;;;;;;3.05;57.07;99590.06;4878322;28;20038;-64
2022/11/03 04:28:44;;;;;;;9.05;4.68;;;;;;;3.14;57.33;99579.75;4898204;28;20041;-64
2022/11/03 04:31:42;;;;;;;9.25;4.65;;;;;;;3.15;57.07;99576.34;4875633;28;20041;-65
2022/11/03 04:34:29;;;;;;;9.50;4.53;;;;;;;3.07;56.32;99578.00;4917791;28;20317;-63
2022/11/03 04:37:16;;;;;;;9.32;4.45;;;;;;;3.03;56.66;99579.72;4894305;28;20060;-64
2022/11/03 04:39:50;;;;;;;9.02;4.60;;;;;;;3.02;56.36;99578.88;4897987;28;20048;-63
2022/11/03 04:45:53;;;;;;;13.20;5.47;;;;;;;2.88;56.02;99580.53;4868206;28;20068;-64
2022/11/03 04:48:36;;;;;;;8.50;5.03;;;;;;;2.90;57.16;99581.41;4888381;28;20396;-64
2022/11/03 04:51:27;;;;;;;9.43;4.70;;;;;;;2.90;57.42;99576.25;4902221;28;20084;-64
2022/11/03 04:54:29;;;;;;;11.70;4.78;;;;;;;2.24;57.04;99475.38;4908723;28;20045;-65
2022/11/03 04:57:21;;;;;;;11.70;5.50;;;;;;;2.73;57.50;99562.44;4892440;28;20053;-64
2022/11/03 05:00:00;;;;;;;9.60;5.43;;;;;;;2.92;57.95;99582.28;4911989;28;20040;-64
2022/11/03 05:02:55;;;;;;;9.80;5.35;;;;;;;2.86;56.86;99578.81;4830953;28;20061;-65
2022/11/03 05:05:36;;;;;;;9.27;5.70;;;;;;;2.89;57.45;99582.25;4894936;28;20049;-67
2022/11/03 05:08:21;;;;;;;10.27;6.03;;;;;;;2.80;56.57;99575.34;4900402;28;20568;-64
2022/11/03 05:14:34;;;;;;;13.18;6.30;;;;;;;2.55;54.85;99574.38;4908287;28;20064;-65
2022/11/03 05:17:45;;;;;;;10.88;5.75;;;;;;;2.23;54.67;99545.00;4846313;28;20051;-64
2022/11/03 05:20:54;;;;;;;11.43;6.07;;;;;;;2.46;55.68;99589.81;4890816;28;21645;-65
2022/11/03 05:23:44;;;;;;;13.13;7.38;;;;;;;2.48;56.40;99587.25;4854818;28;20053;-65
2022/11/03 05:26:48;;;;;;;13.02;6.10;;;;;;;2.47;58.39;99565.75;4868478;28;20049;-64
2022/11/03 05:29:50;;;;;;;13.15;7.20;;;;;;;2.57;57.26;99583.00;4867301;28;20295;-65
2022/11/03 05:32:47;;;;;;;13.20;6.97;;;;;;;2.34;57.64;99538.16;4871473;28;20077;-64
2022/11/03 05:35:35;;;;;;;12.45;6.13;;;;;;;2.68;58.13;99579.59;4866847;28;20049;-64
2022/11/03 05:38:17;;;;;;;14.40;7.05;;;;;;;2.46;58.23;99540.81;4844694;28;20041;-66
2022/11/03 05:46:49;;;;;;;9.57;6.45;;;;;;;2.62;57.96;99564.09;4868551;28;20046;-66
2022/11/03 05:49:51;;;;;;;14.68;7.20;;;;;;;2.71;57.57;99584.78;4865679;28;20101;-65
2022/11/03 05:52:43;;;;;;;14.82;6.97;;;;;;;2.74;57.73;99572.72;4877650;28;20048;-65
2022/11/03 05:55:36;;;;;;;13.18;6.78;;;;;;;2.57;57.28;99556.31;4879687;28;20053;-65
2022/11/03 06:01:19;;;;;;;11.52;6.82;;;;;;;2.62;57.75;99574.41;4879781;28;20369;-66
2022/11/03 06:04:03;;;;;;;12.40;6.68;;;;;;;2.63;58.17;99570.97;4931330;28;20080;-66
2022/11/03 06:07:03;;;;;;;10.68;6.78;;;;;;;2.62;58.91;99572.72;4921607;28;20044;-65
2022/11/03 06:09:56;;;;;;;16.33;6.93;;;;;;;2.48;57.25;99571.78;4864296;28;20049;-65
2022/11/03 06:12:35;;;;;;;11.50;7.00;;;;;;;2.33;58.21;99577.69;4887857;28;20054;-65
2022/11/03 06:15:25;;;;;;;11.35;6.68;;;;;;;2.37;58.98;99579.41;4835000;28;20049;-65
2022/11/03 06:18:16;;;;;;;11.32;6.57;;;;;;;1.96;57.72;99520.75;4833904;28;20109;-65
2022/11/03 06:21:06;;;;;;;12.07;7.13;;;;;;;2.26;58.74;99578.50;4868205;28;20132;-65
2022/11/03 06:23:56;;;;;;;14.18;6.60;;;;;;;2.29;58.83;99575.94;4868490;28;20105;-64
2022/11/03 06:26:57;;;;;;;14.20;6.85;;;;;;;2.12;57.89;99558.69;4902653;28;20045;-64
2022/11/03 06:32:38;;;;;;;10.88;6.85;;;;;;;2.15;57.97;99563.84;4928441;28;20104;-65
2022/11/03 06:35:18;;;;;;;14.48;7.07;;;;;;;2.09;58.33;99561.22;4887522;28;20053;-68
2022/11/03 06:38:21;;;;;;;12.20;6.32;;;;;;;2.07;58.13;99569.78;4854409;28;20531;-66
2022/11/03 06:41:30;;;;;;;11.93;6.53;;;;;;;2.01;58.68;99565.47;4835541;28;20050;-66
2022/11/03 06:44:27;;;;;;;17.88;7.72;;;;;;;2.01;59.56;99568.03;4929260;28;20059;-65
2022/11/03 06:50:33;;;;;;;15.60;7.57;;;;;;;1.94;59.61;99563.69;4861200;28;20059;-66
2022/11/03 06:53:20;;;;;;;15.30;7.28;;;;;;;1.81;59.38;99560.16;4909173;28;20061;-66
2022/11/03 06:56:22;;;;;;;15.60;7.50;;;;;;;1.75;59.26;99566.97;4868124;28;20054;-65
2022/11/03 06:59:26;;;;;;;13.82;7.93;;;;;;;1.68;59.65;99569.50;4847794;28;20084;-64
2022/11/03 07:02:46;;;;;;;18.15;7.93;;;;;;;1.58;59.23;99559.13;4891893;28;20045;-65
2022/11/03 07:08:34;;;;;;;16.13;8.30;;;;;;;1.47;58.60;99566.72;4858692;28;20492;-64
2022/11/03 07:11:37;;;;;;;20.50;7.55;;;;;;;1.44;58.79;99566.72;4924490;28;20052;-65
2022/11/03 07:14:40;;;;;;;13.55;6.82;;;;;;;1.12;58.66;99523.50;4887776;28;20053;-65
2022/11/03 07:17:34;;;;;;;12.73;7.07;;;;;;;1.41;59.40;99570.13;4862717;28;20393;-64
2022/11/03 07:23:17;;;;;;;11.77;6.70;;;;;;;1.27;58.81;99559.72;4961144;28;20350;-65
2022/11/03 07:26:01;;;;;;;14.38;6.63;;;;;;;1.33;59.02;99578.63;4907007;28;20049;-64
2022/11/03 07:28:42;;;;;;;11.32;6.60;;;;;;;1.36;59.34;99579.50;4921186;28;20344;-64
2022/11/03 07:31:36;;;;;;;;;;;;;;;1.37;59.73;99585.50;4881871;28;20313;-65
2022/11/03 07:34:29;;;;;;;15.55;7.20;;;;;;;1.32;59.97;99582.03;4920221;28;19924;-64
2022/11/03 07:37:10;;;;;;;16.30;6.60;;;;;;;1.38;60.48;99579.53;4827391;28;20176;-65
2022/11/03 07:40:04;;;;;;;13.02;6.72;;;;;;;1.36;60.57;99578.66;4829835;28;20586;-64
2022/11/03 07:43:15;;;;;;;13.05;6.63;;;;;;;1.37;60.33;99585.50;4862343;28;20065;-64
2022/11/03 07:46:16;;;;;;;12.82;7.03;;;;;;;1.36;60.12;99583.81;4836132;28;20051;-64
2022/11/03 07:49:00;;;;;;;11.77;6.25;;;;;;;1.32;59.40;99572.59;4850662;28;20073;-65
2022/11/03 07:51:56;;;;;;;10.95;6.25;;;;;;;1.26;58.76;99582.84;4811924;28;20134;-65
2022/11/03 07:54:53;;;;;;;12.00;6.50;;;;;;;1.22;59.67;99571.66;4853499;28;20312;-64
2022/11/03 07:57:43;;;;;;;12.13;7.07;;;;;;;1.24;59.76;99580.25;4781426;28;20061;-65
2022/11/03 08:00:26;;;;;;;12.02;6.20;;;;;;;1.19;58.64;99576.75;4839456;28;20125;-65
2022/11/03 08:03:23;;;;;;;12.30;6.97;;;;;;;1.21;58.75;99590.50;4862264;28;20046;-65
2022/11/03 08:06:06;;;;;;;15.48;7.15;;;;;;;1.24;59.42;99587.97;4830974;28;20043;-65
2022/11/03 08:08:46;;;;;;;10.90;6.40;;;;;;;1.25;59.14;99587.13;4805023;28;20665;-64
2022/11/03 08:11:43;;;;;;;15.05;7.53;;;;;;;1.36;59.60;99586.38;4867901;28;20045;-64
2022/11/03 08:14:43;;;;;;;13.27;6.95;;;;;;;1.40;59.33;99590.69;4843581;28;20053;-64
2022/11/03 08:17:40;;;;;;;14.93;6.70;;;;;;;1.35;58.30;99587.22;4896988;28;20052;-65
2022/11/03 08:20:17;;;;;;;18.48;8.00;;;;;;;1.37;59.50;99595.81;4932179;28;20056;-64
2022/11/03 08:23:04;;;;;;;12.10;6.60;;;;;;;1.42;59.29;99589.00;4893543;28;20053;-65
2022/11/03 08:26:13;;;;;;;15.52;7.07;;;;;;;1.29;58.51;99588.00;4890060;28;20042;-65
2022/11/03 08:28:51;;;;;;;11.05;6.60;;;;;;;1.19;58.64;99581.06;4900461;28;20212;-65
2022/11/03 08:31:28;;;;;;;13.15;6.97;;;;;;;1.24;59.28;99590.53;4869877;28;20334;-65
2022/11/03 08:34:27;;;;;;;11.85;6.93;;;;;;;1.21;60.26;99600.81;4910291;28;20051;-65
2022/11/03 08:37:11;;;;;;;12.05;6.35;;;;;;;1.21;60.97;99590.50;4943290;28;20052;-65
2022/11/03 08:39:51;;;;;;;12.45;6.75;;;;;;;1.10;60.65;99592.13;4930909;28;20045;-65
2022/11/03 08:42:38;;;;;;;14.25;6.20;;;;;;;1.11;61.54;99593.84;4891468;28;20053;-65
2022/11/03 08:45:15;;;;;;;14.85;6.55;;;;;;;1.18;62.24;99600.78;4926930;28;20053;-66
2022/11/03 08:47:53;;;;;;;12.05;6.07;;;;;;;1.23;62.39;99603.41;4884424;28;20080;-65
2022/11/03 08:50:52;;;;;;;14.45;6.28;;;;;;;1.24;62.50;99621.41;4899400;28;20037;-65
2022/11/03 08:56:53;;;;;;;16.27;8.40;;;;;;;1.32;62.48;99602.63;4888788;28;20309;-64
2022/11/03 08:59:42;;;;;;;29.63;14.95;;;;;;;1.21;61.89;99590.50;4854195;28;20038;-65
2022/11/03 09:02:23;;;;;;;28.35;13.10;;;;;;;1.24;62.35;99593.09;4859429;28;20033;-66
2022/11/03 09:04:57;;;;;;;24.75;9.85;;;;;;;1.25;62.26;99592.28;4857981;28;20098;-67
2022/11/03 09:07:40;;;;;;;21.52;9.40;;;;;;;1.22;62.50;99587.13;4867674;28;20041;-66
2022/11/03 09:10:45;;;;;;;13.93;7.78;;;;;;;1.19;62.54;99592.19;4882717;28;20049;-65
2022/11/03 09:13:59;;;;;;;13.40;7.23;;;;;;;1.12;62.90;99580.13;4878976;28;20045;-65
2022/11/03 09:16:51;;;;;;;13.43;6.90;;;;;;;1.25;63.35;99592.28;4923014;28;20298;-66
2022/11/03 09:22:57;;;;;;;15.63;6.45;;;;;;;1.14;62.28;99604.16;4893990;28;20043;-65
2022/11/03 09:25:38;;;;;;;13.55;5.32;;;;;;;0.90;62.99;99604.75;4916870;28;20079;-65
2022/11/03 09:28:24;;;;;;;9.07;5.47;;;;;;;0.53;64.79;99598.28;4906253;28;20049;-65
2022/11/03 09:31:36;;;;;;;9.20;4.70;;;;;;;0.22;66.19;99602.97;4905882;28;20060;-65
2022/11/03 09:34:37;;;;;;;11.75;5.43;;;;;;;0.13;67.89;99596.00;4848106;28;20037;-66
2022/11/03 09:37:16;;;;;;;13.18;6.15;;;;;;;0.23;68.60;99602.16;4960938;28;20037;-67
2022/11/03 09:46:06;;;;;;;9.45;5.10;;;;;;;-0.20;71.64;99624.59;4904809;28;20324;-65
2022/11/03 09:48:41;;;;;;;12.05;5.78;;;;;;;-0.10;72.74;99621.34;4874572;28;20050;-65
2022/11/03 09:51:32;;;;;;;10.95;5.60;;;;;;;-0.02;72.56;99624.88;4841759;28;20050;-64
2022/11/03 09:54:18;;;;;;;15.30;6.55;;;;;;;-0.64;72.85;99503.22;4907953;28;20064;-64
2022/11/03 09:57:09;;;;;;;12.18;5.65;;;;;;;0.25;72.86;99628.75;4931143;28;20341;-65
2022/11/03 09:59:48;;;;;;;10.75;5.32;;;;;;;0.26;72.51;99619.31;4870772;28;20160;-64
2022/11/03 10:02:42;;;;;;;9.07;4.93;;;;;;;0.34;72.74;99613.44;4908615;28;20050;-64
2022/11/03 10:05:37;;;;;;;12.55;5.60;;;;;;;0.39;73.23;99606.66;4887797;28;20109;-64
2022/11/03 10:08:25;;;;;;;10.27;5.30;;;;;;;-0.27;72.86;99484.13;4862292;28;20192;-64
2022/11/03 10:11:31;;;;;;;11.10;5.55;;;;;;;0.34;72.26;99587.72;4893994;28;20355;-64
2022/11/03 10:14:32;;;;;;;8.75;5.63;;;;;;;0.46;72.50;99593.91;4875881;28;20107;-64
2022/11/03 10:17:23;;;;;;;11.48;5.05;;;;;;;0.42;72.84;99581.00;4903753;28;20061;-65
2022/11/03 10:20:05;;;;;;;9.93;5.50;;;;;;;0.49;72.31;99593.94;4898948;28;20045;-64
2022/11/03 10:22:37;;;;;;;19.05;7.95;;;;;;;0.52;72.67;99591.41;4907205;28;20052;-63
2022/11/03 10:25:39;;;;;;;13.98;6.88;;;;;;;0.56;72.99;99590.59;4932833;28;20045;-64
2022/11/03 10:28:27;;;;;;;49.42;18.42;;;;;;;0.51;73.20;99574.25;4911174;28;20058;-63
2022/11/03 10:31:09;;;;;;;18.00;7.97;;;;;;;0.35;72.26;99558.63;4883449;28;20067;-64
2022/11/03 10:33:56;;;;;;;12.57;5.50;;;;;;;0.44;71.51;99573.31;4901145;28;20125;-64
2022/11/03 10:37:41;;;;;;;9.15;5.47;;;;;;;0.52;72.33;99578.53;4898232;28;20120;-65
2022/11/03 10:40:44;;;;;;;11.70;5.60;;;;;;;0.47;71.64;99575.06;4907454;28;20051;-65
2022/11/03 10:43:50;;;;;;;10.85;5.30;;;;;;;0.16;72.70;99530.97;4850775;28;20303;-64
2022/11/03 10:46:57;;;;;;;7.63;4.35;;;;;;;0.40;71.91;99587.84;4911477;28;20057;-65
2022/11/03 10:49:49;;;;;;;11.02;4.93;;;;;;;0.19;70.61;99597.78;4917869;28;20049;-63
2022/11/03 10:52:30;;;;;;;9.20;4.78;;;;;;;-0.09;71.61;99602.50;4859937;28;20117;-64
2022/11/03 10:56:21;;;;;;;8.80;4.78;;;;;;;-0.45;74.98;99593.38;4848380;28;20366;-63
2022/11/03 10:59:35;;;;;;;10.32;4.88;;;;;;;-0.43;77.08;99591.66;4812647;28;20050;-64
2022/11/03 11:02:30;;;;;;;9.43;4.30;;;;;;;-0.53;78.08;99582.09;4834171;28;20113;-63
2022/11/03 11:05:25;;;;;;;8.15;4.75;;;;;;;-0.43;78.67;99599.38;4840964;28;20105;-64
2022/11/03 11:08:28;;;;;;;12.10;4.53;;;;;;;-0.48;79.64;99593.28;4844443;28;20090;-64
2022/11/03 11:11:08;;;;;;;11.57;6.07;;;;;;;-0.50;79.69;99594.09;4866936;28;20046;-63
2022/11/03 11:14:42;;;;;;;7.43;4.60;;;;;;;-0.45;80.48;99597.63;4825688;28;20042;-64
2022/11/03 11:17:48;;;;;;;8.52;4.57;;;;;;;-0.39;80.81;99586.63;4827036;28;20138;-63
2022/11/03 11:20:58;;;;;;;8.25;4.65;;;;;;;-0.44;80.69;99569.44;4842276;28;20099;-64
2022/11/03 11:24:07;;;;;;;8.88;4.88;;;;;;;-0.37;80.48;99590.06;4834629;28;20103;-63
2022/11/03 11:26:49;;;;;;;14.27;6.13;;;;;;;-0.36;81.31;99586.66;4873879;28;20871;-63
2022/11/03 11:29:58;;;;;;;14.32;8.82;;;;;;;-0.35;81.30;99589.25;4876474;28;20045;-63
2022/11/03 11:36:39;;;;;;;12.05;7.35;;;;;;;-0.35;82.18;99583.25;4832755;28;20065;-64
2022/11/03 11:39:48;;;;;;;10.75;6.03;;;;;;;-0.36;82.66;99581.53;4835222;28;20053;-63
2022/11/03 11:43:38;;;;;;;;;;;;;;;;;;;;;
2022/11/03 11:47:01;;;;;;;10.38;5.80;;;;;;;-0.28;83.29;99579.94;4851231;28;20128;-64
2022/11/03 11:50:21;;;;;;;9.82;4.78;;;;;;;-0.15;83.78;99576.75;4847763;28;20343;-64
2022/11/03 11:53:24;;;;;;;8.95;4.93;;;;;;;-0.04;83.39;99575.19;4847505;28;20062;-64
2022/11/03 11:56:36;;;;;;;9.00;4.90;;;;;;;0.02;83.77;99583.84;4848923;28;20148;-63
2022/11/03 11:59:33;;;;;;;7.25;4.60;;;;;;;0.02;84.07;99581.25;4824463;28;20069;-64
2022/11/03 12:02:26;;;;;;;9.70;4.65;;;;;;;0.09;84.03;99594.22;4825443;28;20122;-64
2022/11/03 12:05:09;;;;;;;16.55;7.95;;;;;;;0.14;84.12;99595.16;4809804;28;20089;-64
2022/11/03 12:07:51;;;;;;;21.88;12.63;;;;;;;0.08;83.86;99573.66;4829898;28;20051;-64
2022/11/03 12:10:37;;;;;;;10.38;6.47;;;;;;;0.12;84.46;99590.84;4803653;28;20054;-64
2022/11/03 12:13:50;;;;;;;9.52;5.10;;;;;;;-0.04;84.69;99554.66;4892193;28;20071;-63
2022/11/03 12:16:40;;;;;;;14.38;7.22;;;;;;;0.12;84.64;99590.84;4898825;28;20488;-64
2022/11/03 12:19:52;;;;;;;20.55;10.48;;;;;;;0.05;84.67;99594.16;4909379;28;20092;-64
2022/11/03 12:22:48;;;;;;;10.05;6.07;;;;;;;0.03;84.80;99593.28;4909754;28;20045;-64
2022/11/03 12:25:42;;;;;;;9.23;5.50;;;;;;;-0.23;85.49;99573.19;4890370;28;20274;-64
2022/11/03 12:28:39;;;;;;;9.00;4.68;;;;;;;-0.03;85.59;99589.75;4895229;28;20357;-64
2022/11/03 12:31:22;;;;;;;8.60;4.90;;;;;;;-0.04;85.42;99590.59;4872669;28;20380;-64
2022/11/03 12:33:56;;;;;;;10.82;5.15;;;;;;;-0.01;85.72;99595.78;4904136;28;20046;-64
2022/11/03 12:36:55;;;;;;;10.55;4.63;;;;;;;0.04;86.02;99592.44;4893870;28;20049;-64
2022/11/03 12:39:51;;;;;;;13.75;4.78;;;;;;;0.10;85.88;99587.38;4894597;28;20095;-64
2022/11/03 12:45:36;;;;;;;14.00;5.65;;;;;;;0.10;85.01;99587.38;4885025;28;20045;-63
2022/11/03 12:48:19;;;;;;;11.63;5.53;;;;;;;0.10;84.82;99583.13;4887023;28;20049;-66
2022/11/03 12:51:00;;;;;;;;;;;;;;;0.09;85.05;99580.53;4848834;28;20053;-65
2022/11/03 12:53:44;;;;;;;15.00;5.88;;;;;;;0.09;85.20;99585.66;4887556;28;19926;-65
2022/11/03 12:56:27;;;;;;;16.15;7.03;;;;;;;0.09;85.31;99583.09;4883903;28;20041;-64
2022/11/03 12:59:36;;;;;;;13.95;6.63;;;;;;;0.04;85.52;99571.88;4863720;28;20063;-64
2022/11/03 13:02:23;;;;;;;11.35;6.70;;;;;;;0.02;85.55;99568.41;4878376;28;20096;-64
2022/11/03 13:05:05;;;;;;;13.32;6.43;;;;;;;-0.06;85.40;99566.59;4907167;28;20061;-64
2022/11/03 13:07:42;;;;;;;11.55;6.32;;;;;;;-0.08;85.50;99567.41;4887112;28;20053;-65
2022/11/03 13:10:30;;;;;;;9.27;5.03;;;;;;;-0.12;85.50;99566.53;4893721;28;20245;-64
2022/11/03 13:13:16;;;;;;;11.82;5.50;;;;;;;-0.16;85.63;99557.03;4860031;28;20049;-64
2022/11/03 13:16:08;;;;;;;9.27;5.32;;;;;;;-0.19;85.78;99556.13;4904781;28;20392;-64
2022/11/03 13:21:35;;;;;;;10.35;4.97;;;;;;;-0.16;85.54;99558.75;4902167;28;20124;-64
2022/11/03 13:24:24;;;;;;;8.82;4.93;;;;;;;-0.17;85.41;99563.03;4863502;28;20065;-64
2022/11/03 13:27:07;;;;;;;9.63;5.15;;;;;;;-0.18;85.80;99563.84;4892052;28;20265;-65
2022/11/03 13:29:46;;;;;;;9.57;4.63;;;;;;;-0.24;85.78;99566.31;4882855;28;20059;-64
2022/11/03 13:32:33;;;;;;;7.93;5.05;;;;;;;-0.21;85.57;99581.78;4884998;28;20053;-65
2022/11/03 13:35:11;;;;;;;7.90;4.65;;;;;;;-0.20;85.50;99570.69;4895982;28;20199;-65
2022/11/03 13:37:51;;;;;;;9.13;5.28;;;;;;;-0.21;85.69;99556.09;4846815;28;20073;-64
2022/11/03 13:40:31;;;;;;;8.23;4.72;;;;;;;-0.23;85.03;99547.50;4893703;28;20102;-65
2022/11/03 13:43:40;;;;;;;9.73;4.77;;;;;;;-0.25;85.49;99549.19;4891818;28;20084;-65
2022/11/03 13:49:08;;;;;;;8.57;4.70;;;;;;;-0.11;85.28;99557.09;4865928;28;20052;-65
2022/11/03 13:52:05;;;;;;;6.75;4.65;;;;;;;-0.10;85.37;99548.53;4857944;28;20068;-65
2022/11/03 13:54:45;;;;;;;8.43;5.05;;;;;;;-0.07;85.02;99549.47;4863207;28;20042;-65
2022/11/03 13:57:38;;;;;;;7.15;4.18;;;;;;;0.02;84.95;99553.00;4899915;28;20322;-65
2022/11/03 14:00:42;;;;;;;7.20;4.18;;;;;;;0.01;84.39;99552.16;4860169;28;20054;-64
2022/11/03 14:06:40;;;;;;;7.38;4.53;;;;;;;-0.02;83.59;99558.13;4897951;28;20188;-66
2022/11/03 14:09:24;;;;;;;6.38;3.58;;;;;;;-0.06;83.52;99551.19;4894398;28;20068;-65
2022/11/03 14:15:18;;;;;;;7.32;3.90;;;;;;;-0.02;83.21;99542.69;4875205;28;20046;-65
2022/11/03 14:18:14;;;;;;;9.02;3.70;;;;;;;-0.07;83.13;99539.19;4879908;28;20538;-65
2022/11/03 14:20:57;;;;;;;6.78;4.10;;;;;;;-0.07;83.20;99534.06;4892751;28;20049;-65
2022/11/03 14:26:37;;;;;;;7.28;3.33;;;;;;;-0.07;82.49;99531.50;4882420;28;20056;-65
2022/11/03 14:29:25;;;;;;;5.97;3.63;;;;;;;-0.08;82.71;99532.31;4861822;28;20129;-65
2022/11/03 14:35:14;;;;;;;6.45;3.85;;;;;;;0.05;82.93;99532.50;4849399;28;20042;-65
2022/11/03 14:46:25;;;;;;;7.25;4.28;;;;;;;0.11;81.09;99528.31;4906850;28;20057;-65
2022/11/03 14:49:05;;;;;;;5.90;3.58;;;;;;;0.11;81.14;99522.31;4896088;28;20052;-65
2022/11/03 14:55:11;;;;;;;9.30;3.50;;;;;;;0.11;80.53;99506.91;4894825;28;20072;-64
2022/11/03 14:57:45;;;;;;;5.07;3.40;;;;;;;0.20;79.91;99523.31;4840838;28;20046;-65
2022/11/03 15:00:27;;;;;;;6.20;3.45;;;;;;;0.19;79.84;99518.16;4886535;28;20157;-64
2022/11/03 15:03:28;;;;;;;8.60;3.33;;;;;;;0.12;79.58;99513.75;4888569;28;20333;-64
2022/11/03 15:06:08;;;;;;;5.63;3.25;;;;;;;0.04;79.75;99494.81;4886748;28;20068;-65
2022/11/03 15:09:01;;;;;;;6.60;3.47;;;;;;;0.22;79.90;99500.19;4887902;28;20060;-65
2022/11/03 15:12:09;;;;;;;5.45;3.38;;;;;;;0.16;78.66;99503.56;4881004;28;20059;-65
2022/11/03 15:15:10;;;;;;;7.60;3.35;;;;;;;0.12;78.24;99498.34;4896727;28;20041;-65
2022/11/03 15:17:51;;;;;;;5.97;3.10;;;;;;;0.16;78.42;99505.28;4852179;28;20357;-65
2022/11/03 15:20:35;;;;;;;12.17;3.97;;;;;;;0.13;77.54;99500.97;4834510;28;20330;-65
2022/11/03 15:23:19;;;;;;;5.93;3.00;;;;;;;0.13;77.42;99494.97;4904388;28;20532;-65
2022/11/03 15:27:06;;;;;;;8.05;3.60;;;;;;;0.08;77.31;99486.34;4885710;28;20058;-65
2022/11/03 15:33:16;;;;;;;8.23;3.35;;;;;;;0.03;76.52;99485.41;4857025;28;20077;-65
2022/11/03 15:36:00;;;;;;;6.72;3.00;;;;;;;-0.03;76.05;99479.31;4851784;28;20104;-65
2022/11/03 15:38:50;;;;;;;6.10;3.17;;;;;;;-0.05;75.88;99475.88;4863496;28;20046;-65
2022/11/03 15:47:50;;;;;;;6.60;3.30;;;;;;;-0.29;76.53;99476.41;4857400;28;20380;-64